sensor_id;sensor_type;location;lat;lon;timestamp;temperature;humidity
18392;DHT22;9322;50.932;5.318;2023-01-08T00:01:42;10.30;99.90
18392;DHT22;9322;50.932;5.318;2023-01-08T00:04:09;10.30;99.90
18392;DHT22;9322;50.932;5.318;2023-01-08T00:06:35;10.30;99.90
18392;DHT22;9322;50.932;5.318;2023-01-08T00:09:00;10.10;99.90
18392;DHT22;9322;50.932;5.318;2023-01-08T00:11:26;10.20;99.90
18392;DHT22;9322;50.932;5.318;2023-01-08T00:13:52;10.30;99.90
18392;DHT22;9322;50.932;5.318;2023-01-08T00:16:18;10.20;99.90
18392;DHT22;9322;50.932;5.318;2023-01-08T00:18:45;10.10;99.90
18392;DHT22;9322;50.932;5.318;2023-01-08T00:21:11;10.10;99.90
18392;DHT22;9322;50.932;5.318;2023-01-08T00:23:37;10.00;99.90
18392;DHT22;9322;50.932;5.318;2023-01-08T00:26:05;10.20;99.90
18392;DHT22;9322;50.932;5.318;2023-01-08T00:28:32;10.30;99.90
18392;DHT22;9322;50.932;5.318;2023-01-08T00:30:58;10.20;99.90
18392;DHT22;9322;50.932;5.318;2023-01-08T00:33:23;10.20;99.90
18392;DHT22;9322;50.932;5.318;2023-01-08T00:35:49;10.20;99.90
18392;DHT22;9322;50.932;5.318;2023-01-08T00:38:15;10.30;99.90
18392;DHT22;9322;50.932;5.318;2023-01-08T00:40:41;10.20;99.90
18392;DHT22;9322;50.932;5.318;2023-01-08T00:43:06;10.30;99.90
18392;DHT22;9322;50.932;5.318;2023-01-08T00:45:32;10.30;99.90
18392;DHT22;9322;50.932;5.318;2023-01-08T00:47:58;10.20;99.90
18392;DHT22;9322;50.932;5.318;2023-01-08T00:50:24;10.20;99.90
18392;DHT22;9322;50.932;5.318;2023-01-08T00:52:50;10.30;99.90
18392;DHT22;9322;50.932;5.318;2023-01-08T00:55:16;10.30;99.90
18392;DHT22;9322;50.932;5.318;2023-01-08T00:57:42;10.50;99.90
18392;DHT22;9322;50.932;5.318;2023-01-08T01:00:12;10.30;99.90
18392;DHT22;9322;50.932;5.318;2023-01-08T01:02:38;10.40;99.90
18392;DHT22;9322;50.932;5.318;2023-01-08T01:05:05;10.40;99.90
18392;DHT22;9322;50.932;5.318;2023-01-08T01:07:32;10.40;99.90
18392;DHT22;9322;50.932;5.318;2023-01-08T01:09:58;10.50;99.90
18392;DHT22;9322;50.932;5.318;2023-01-08T01:12:24;10.40;99.90
18392;DHT22;9322;50.932;5.318;2023-01-08T01:14:50;10.40;99.90
18392;DHT22;9322;50.932;5.318;2023-01-08T01:17:16;10.60;99.90
18392;DHT22;9322;50.932;5.318;2023-01-08T01:19:42;10.30;99.90
18392;DHT22;9322;50.932;5.318;2023-01-08T01:22:08;10.30;99.90
18392;DHT22;9322;50.932;5.318;2023-01-08T01:24:34;10.50;99.90
18392;DHT22;9322;50.932;5.318;2023-01-08T01:26:59;10.40;99.90
18392;DHT22;9322;50.932;5.318;2023-01-08T01:29:25;10.50;99.90
18392;DHT22;9322;50.932;5.318;2023-01-08T01:31:51;10.40;99.90
18392;DHT22;9322;50.932;5.318;2023-01-08T01:34:16;10.40;99.90
18392;DHT22;9322;50.932;5.318;2023-01-08T01:36:42;10.50;99.90
18392;DHT22;9322;50.932;5.318;2023-01-08T01:39:08;10.60;99.90
18392;DHT22;9322;50.932;5.318;2023-01-08T01:41:44;10.40;99.90
18392;DHT22;9322;50.932;5.318;2023-01-08T01:49:35;10.40;99.90
18392;DHT22;9322;50.932;5.318;2023-01-08T01:52:04;10.40;99.90
18392;DHT22;9322;50.932;5.318;2023-01-08T01:54:34;10.20;99.90
18392;DHT22;9322;50.932;5.318;2023-01-08T01:57:00;10.30;99.90
18392;DHT22;9322;50.932;5.318;2023-01-08T01:59:27;10.70;99.90
18392;DHT22;9322;50.932;5.318;2023-01-08T02:01:53;10.30;99.90
18392;DHT22;9322;50.932;5.318;2023-01-08T02:04:19;10.30;99.90
18392;DHT22;9322;50.932;5.318;2023-01-08T02:07:19;10.30;99.90
18392;DHT22;9322;50.932;5.318;2023-01-08T02:12:42;10.30;99.90
18392;DHT22;9322;50.932;5.318;2023-01-08T02:17:57;10.30;99.90
18392;DHT22;9322;50.932;5.318;2023-01-08T02:20:55;10.30;99.90
18392;DHT22;9322;50.932;5.318;2023-01-08T02:31:35;10.30;99.90
18392;DHT22;9322;50.932;5.318;2023-01-08T02:34:03;10.70;99.90
18392;DHT22;9322;50.932;5.318;2023-01-08T02:44:34;10.20;99.90
18392;DHT22;9322;50.932;5.318;2023-01-08T02:47:05;10.30;99.90
18392;DHT22;9322;50.932;5.318;2023-01-08T02:49:34;10.30;99.90
18392;DHT22;9322;50.932;5.318;2023-01-08T02:52:04;10.20;99.90
18392;DHT22;9322;50.932;5.318;2023-01-08T02:54:33;10.30;99.90
18392;DHT22;9322;50.932;5.318;2023-01-08T02:57:25;10.30;99.90
18392;DHT22;9322;50.932;5.318;2023-01-08T02:59:53;10.30;99.90
18392;DHT22;9322;50.932;5.318;2023-01-08T03:02:19;10.30;99.90
18392;DHT22;9322;50.932;5.318;2023-01-08T03:04:52;10.20;99.90
18392;DHT22;9322;50.932;5.318;2023-01-08T03:07:19;10.20;99.90
18392;DHT22;9322;50.932;5.318;2023-01-08T03:09:45;10.20;99.90
18392;DHT22;9322;50.932;5.318;2023-01-08T03:12:46;10.10;99.90
18392;DHT22;9322;50.932;5.318;2023-01-08T03:15:18;10.20;99.90
18392;DHT22;9322;50.932;5.318;2023-01-08T03:17:47;10.20;99.90
18392;DHT22;9322;50.932;5.318;2023-01-08T03:20:16;10.30;99.90
18392;DHT22;9322;50.932;5.318;2023-01-08T03:22:46;10.30;99.90
18392;DHT22;9322;50.932;5.318;2023-01-08T03:25:13;10.40;99.90
18392;DHT22;9322;50.932;5.318;2023-01-08T03:27:43;10.30;99.90
18392;DHT22;9322;50.932;5.318;2023-01-08T03:30:10;10.20;99.90
18392;DHT22;9322;50.932;5.318;2023-01-08T03:32:38;10.20;99.90
18392;DHT22;9322;50.932;5.318;2023-01-08T03:35:07;10.40;99.90
18392;DHT22;9322;50.932;5.318;2023-01-08T03:37:37;10.30;99.90
18392;DHT22;9322;50.932;5.318;2023-01-08T03:40:11;10.30;99.90
18392;DHT22;9322;50.932;5.318;2023-01-08T03:42:38;10.30;99.90
18392;DHT22;9322;50.932;5.318;2023-01-08T03:45:04;10.30;99.90
18392;DHT22;9322;50.932;5.318;2023-01-08T03:47:31;10.20;99.90
18392;DHT22;9322;50.932;5.318;2023-01-08T03:50:01;10.10;99.90
18392;DHT22;9322;50.932;5.318;2023-01-08T03:52:30;10.00;99.90
18392;DHT22;9322;50.932;5.318;2023-01-08T03:54:56;10.00;99.90
18392;DHT22;9322;50.932;5.318;2023-01-08T03:57:22;10.00;99.90
18392;DHT22;9322;50.932;5.318;2023-01-08T03:59:47;10.10;99.90
18392;DHT22;9322;50.932;5.318;2023-01-08T04:02:13;10.20;99.90
18392;DHT22;9322;50.932;5.318;2023-01-08T04:04:39;10.20;99.90
18392;DHT22;9322;50.932;5.318;2023-01-08T04:07:06;10.10;99.90
18392;DHT22;9322;50.932;5.318;2023-01-08T04:09:31;10.20;99.90
18392;DHT22;9322;50.932;5.318;2023-01-08T04:11:57;9.90;99.90
18392;DHT22;9322;50.932;5.318;2023-01-08T04:14:23;9.90;99.90
18392;DHT22;9322;50.932;5.318;2023-01-08T04:16:48;9.90;99.90
18392;DHT22;9322;50.932;5.318;2023-01-08T04:19:14;9.60;99.90
18392;DHT22;9322;50.932;5.318;2023-01-08T04:21:40;9.50;99.90
18392;DHT22;9322;50.932;5.318;2023-01-08T04:24:06;9.50;99.90
18392;DHT22;9322;50.932;5.318;2023-01-08T04:26:32;9.80;99.90
18392;DHT22;9322;50.932;5.318;2023-01-08T04:29:00;9.70;99.90
18392;DHT22;9322;50.932;5.318;2023-01-08T04:31:26;9.80;99.90
18392;DHT22;9322;50.932;5.318;2023-01-08T04:33:52;9.80;99.90
18392;DHT22;9322;50.932;5.318;2023-01-08T04:36:17;9.60;99.90
18392;DHT22;9322;50.932;5.318;2023-01-08T04:38:43;9.50;99.90
18392;DHT22;9322;50.932;5.318;2023-01-08T04:41:08;9.60;99.90
18392;DHT22;9322;50.932;5.318;2023-01-08T04:43:34;9.70;99.90
18392;DHT22;9322;50.932;5.318;2023-01-08T04:46:01;9.60;99.90
18392;DHT22;9322;50.932;5.318;2023-01-08T04:48:28;9.40;99.90
18392;DHT22;9322;50.932;5.318;2023-01-08T04:50:54;9.40;99.90
18392;DHT22;9322;50.932;5.318;2023-01-08T04:53:22;9.40;99.90
18392;DHT22;9322;50.932;5.318;2023-01-08T04:55:47;9.10;99.90
18392;DHT22;9322;50.932;5.318;2023-01-08T04:58:13;9.00;99.90
18392;DHT22;9322;50.932;5.318;2023-01-08T05:00:39;9.00;99.90
18392;DHT22;9322;50.932;5.318;2023-01-08T05:03:05;9.00;99.90
18392;DHT22;9322;50.932;5.318;2023-01-08T05:05:32;8.90;99.90
18392;DHT22;9322;50.932;5.318;2023-01-08T05:07:58;8.90;99.90
18392;DHT22;9322;50.932;5.318;2023-01-08T05:10:24;8.70;99.90
18392;DHT22;9322;50.932;5.318;2023-01-08T05:12:49;8.70;99.90
18392;DHT22;9322;50.932;5.318;2023-01-08T05:15:15;8.40;99.90
18392;DHT22;9322;50.932;5.318;2023-01-08T05:17:40;8.30;99.90
18392;DHT22;9322;50.932;5.318;2023-01-08T05:20:07;8.20;99.90
18392;DHT22;9322;50.932;5.318;2023-01-08T05:22:33;8.10;99.90
18392;DHT22;9322;50.932;5.318;2023-01-08T05:24:59;8.20;99.90
18392;DHT22;9322;50.932;5.318;2023-01-08T05:27:24;8.20;99.90
18392;DHT22;9322;50.932;5.318;2023-01-08T05:29:50;8.20;99.90
18392;DHT22;9322;50.932;5.318;2023-01-08T05:32:17;8.10;99.90
18392;DHT22;9322;50.932;5.318;2023-01-08T05:34:43;8.10;99.90
18392;DHT22;9322;50.932;5.318;2023-01-08T05:37:10;8.20;99.90
18392;DHT22;9322;50.932;5.318;2023-01-08T05:39:36;8.20;99.90
18392;DHT22;9322;50.932;5.318;2023-01-08T05:42:02;8.10;99.90
18392;DHT22;9322;50.932;5.318;2023-01-08T05:44:28;8.00;99.90
18392;DHT22;9322;50.932;5.318;2023-01-08T05:46:54;7.90;99.90
18392;DHT22;9322;50.932;5.318;2023-01-08T05:49:21;8.00;99.90
18392;DHT22;9322;50.932;5.318;2023-01-08T05:51:48;7.90;99.90
18392;DHT22;9322;50.932;5.318;2023-01-08T05:54:14;7.90;99.90
18392;DHT22;9322;50.932;5.318;2023-01-08T05:56:40;7.90;99.90
18392;DHT22;9322;50.932;5.318;2023-01-08T05:59:10;8.00;99.90
18392;DHT22;9322;50.932;5.318;2023-01-08T06:01:36;7.80;99.90
18392;DHT22;9322;50.932;5.318;2023-01-08T06:04:02;7.80;99.90
18392;DHT22;9322;50.932;5.318;2023-01-08T06:06:27;7.70;99.90
18392;DHT22;9322;50.932;5.318;2023-01-08T06:08:53;7.90;99.90
18392;DHT22;9322;50.932;5.318;2023-01-08T06:11:18;7.80;99.90
18392;DHT22;9322;50.932;5.318;2023-01-08T06:13:44;7.80;99.90
18392;DHT22;9322;50.932;5.318;2023-01-08T06:16:10;7.70;99.90
18392;DHT22;9322;50.932;5.318;2023-01-08T06:18:36;7.70;99.90
18392;DHT22;9322;50.932;5.318;2023-01-08T06:21:02;7.50;99.90
18392;DHT22;9322;50.932;5.318;2023-01-08T06:23:30;7.40;99.90
18392;DHT22;9322;50.932;5.318;2023-01-08T06:25:57;7.50;99.90
18392;DHT22;9322;50.932;5.318;2023-01-08T06:28:23;7.50;99.90
18392;DHT22;9322;50.932;5.318;2023-01-08T06:30:50;7.40;99.90
18392;DHT22;9322;50.932;5.318;2023-01-08T06:33:16;7.40;99.90
18392;DHT22;9322;50.932;5.318;2023-01-08T06:35:42;7.30;99.90
18392;DHT22;9322;50.932;5.318;2023-01-08T06:38:07;7.40;99.90
18392;DHT22;9322;50.932;5.318;2023-01-08T06:40:33;7.40;99.90
18392;DHT22;9322;50.932;5.318;2023-01-08T06:43:03;7.20;99.90
18392;DHT22;9322;50.932;5.318;2023-01-08T06:45:30;7.30;99.90
18392;DHT22;9322;50.932;5.318;2023-01-08T06:48:03;7.50;99.90
18392;DHT22;9322;50.932;5.318;2023-01-08T06:50:29;7.30;99.90
18392;DHT22;9322;50.932;5.318;2023-01-08T06:52:55;7.30;99.90
18392;DHT22;9322;50.932;5.318;2023-01-08T06:55:22;7.40;99.90
18392;DHT22;9322;50.932;5.318;2023-01-08T06:57:47;7.30;99.90
18392;DHT22;9322;50.932;5.318;2023-01-08T07:00:13;7.40;99.90
18392;DHT22;9322;50.932;5.318;2023-01-08T07:02:39;7.40;99.90
18392;DHT22;9322;50.932;5.318;2023-01-08T07:05:05;7.40;99.90
18392;DHT22;9322;50.932;5.318;2023-01-08T07:07:31;7.30;99.90
18392;DHT22;9322;50.932;5.318;2023-01-08T07:09:57;7.30;99.90
18392;DHT22;9322;50.932;5.318;2023-01-08T07:12:23;7.30;99.90
18392;DHT22;9322;50.932;5.318;2023-01-08T07:14:49;7.30;99.90
18392;DHT22;9322;50.932;5.318;2023-01-08T07:17:15;7.30;99.90
18392;DHT22;9322;50.932;5.318;2023-01-08T07:19:40;7.40;99.90
18392;DHT22;9322;50.932;5.318;2023-01-08T07:22:08;7.40;99.90
18392;DHT22;9322;50.932;5.318;2023-01-08T07:24:33;7.50;99.90
18392;DHT22;9322;50.932;5.318;2023-01-08T07:26:59;7.30;99.90
18392;DHT22;9322;50.932;5.318;2023-01-08T07:29:25;7.40;99.90
18392;DHT22;9322;50.932;5.318;2023-01-08T07:31:51;7.40;99.90
18392;DHT22;9322;50.932;5.318;2023-01-08T07:34:17;7.40;99.90
18392;DHT22;9322;50.932;5.318;2023-01-08T07:36:43;7.40;99.90
18392;DHT22;9322;50.932;5.318;2023-01-08T07:39:08;7.50;99.90
18392;DHT22;9322;50.932;5.318;2023-01-08T07:41:34;7.40;99.90
18392;DHT22;9322;50.932;5.318;2023-01-08T07:43:59;7.50;99.90
18392;DHT22;9322;50.932;5.318;2023-01-08T07:46:25;7.50;99.90
18392;DHT22;9322;50.932;5.318;2023-01-08T07:48:51;7.50;99.90
18392;DHT22;9322;50.932;5.318;2023-01-08T07:51:16;7.60;99.90
18392;DHT22;9322;50.932;5.318;2023-01-08T07:53:42;7.60;99.90
18392;DHT22;9322;50.932;5.318;2023-01-08T07:56:09;7.60;99.90
18392;DHT22;9322;50.932;5.318;2023-01-08T07:58:35;7.80;99.90
18392;DHT22;9322;50.932;5.318;2023-01-08T08:01:02;7.80;99.90
18392;DHT22;9322;50.932;5.318;2023-01-08T08:03:27;7.80;99.90
18392;DHT22;9322;50.932;5.318;2023-01-08T08:05:53;8.10;99.90
18392;DHT22;9322;50.932;5.318;2023-01-08T08:08:19;8.00;99.90
18392;DHT22;9322;50.932;5.318;2023-01-08T08:10:45;7.80;99.90
18392;DHT22;9322;50.932;5.318;2023-01-08T08:13:11;7.90;99.90
18392;DHT22;9322;50.932;5.318;2023-01-08T08:15:38;8.00;99.90
18392;DHT22;9322;50.932;5.318;2023-01-08T08:18:04;8.10;99.90
18392;DHT22;9322;50.932;5.318;2023-01-08T08:20:30;8.20;99.90
18392;DHT22;9322;50.932;5.318;2023-01-08T08:23:10;8.50;99.90
18392;DHT22;9322;50.932;5.318;2023-01-08T08:25:40;8.70;99.90
18392;DHT22;9322;50.932;5.318;2023-01-08T08:28:05;8.70;99.90
18392;DHT22;9322;50.932;5.318;2023-01-08T08:30:33;8.70;99.90
18392;DHT22;9322;50.932;5.318;2023-01-08T08:33:00;8.70;99.90
18392;DHT22;9322;50.932;5.318;2023-01-08T08:35:27;8.60;99.90
18392;DHT22;9322;50.932;5.318;2023-01-08T08:37:53;8.50;99.90
18392;DHT22;9322;50.932;5.318;2023-01-08T08:40:19;8.50;99.90
18392;DHT22;9322;50.932;5.318;2023-01-08T08:42:45;8.50;99.90
18392;DHT22;9322;50.932;5.318;2023-01-08T08:45:11;8.70;99.90
18392;DHT22;9322;50.932;5.318;2023-01-08T08:47:36;8.60;99.90
18392;DHT22;9322;50.932;5.318;2023-01-08T08:50:03;8.60;99.90
18392;DHT22;9322;50.932;5.318;2023-01-08T08:52:30;8.60;99.90
18392;DHT22;9322;50.932;5.318;2023-01-08T08:54:55;8.70;99.90
18392;DHT22;9322;50.932;5.318;2023-01-08T08:57:25;8.70;99.90
18392;DHT22;9322;50.932;5.318;2023-01-08T08:59:51;8.70;99.90
18392;DHT22;9322;50.932;5.318;2023-01-08T09:02:16;8.70;99.90
18392;DHT22;9322;50.932;5.318;2023-01-08T09:04:42;8.70;99.90
18392;DHT22;9322;50.932;5.318;2023-01-08T09:07:08;8.80;99.90
18392;DHT22;9322;50.932;5.318;2023-01-08T09:09:33;8.80;99.90
18392;DHT22;9322;50.932;5.318;2023-01-08T09:11:59;8.80;99.90
18392;DHT22;9322;50.932;5.318;2023-01-08T09:14:25;9.10;99.90
18392;DHT22;9322;50.932;5.318;2023-01-08T09:16:51;9.10;99.90
18392;DHT22;9322;50.932;5.318;2023-01-08T09:19:16;9.20;99.90
18392;DHT22;9322;50.932;5.318;2023-01-08T09:21:42;9.10;99.90
18392;DHT22;9322;50.932;5.318;2023-01-08T09:24:08;9.10;99.90
18392;DHT22;9322;50.932;5.318;2023-01-08T09:26:34;8.90;99.90
18392;DHT22;9322;50.932;5.318;2023-01-08T09:29:00;9.00;99.90
18392;DHT22;9322;50.932;5.318;2023-01-08T09:31:26;9.20;99.90
18392;DHT22;9322;50.932;5.318;2023-01-08T09:33:52;9.20;99.90
18392;DHT22;9322;50.932;5.318;2023-01-08T09:36:18;9.20;99.90
18392;DHT22;9322;50.932;5.318;2023-01-08T09:38:44;9.30;99.90
18392;DHT22;9322;50.932;5.318;2023-01-08T09:44:14;9.00;99.90
18392;DHT22;9322;50.932;5.318;2023-01-08T09:46:42;9.10;99.90
18392;DHT22;9322;50.932;5.318;2023-01-08T09:49:13;9.20;99.90
18392;DHT22;9322;50.932;5.318;2023-01-08T09:51:40;9.30;99.90
18392;DHT22;9322;50.932;5.318;2023-01-08T09:54:06;9.20;99.90
18392;DHT22;9322;50.932;5.318;2023-01-08T09:56:35;9.10;99.90
18392;DHT22;9322;50.932;5.318;2023-01-08T09:59:03;9.10;99.90
18392;DHT22;9322;50.932;5.318;2023-01-08T10:01:34;8.80;99.90
18392;DHT22;9322;50.932;5.318;2023-01-08T10:04:17;8.70;99.90
18392;DHT22;9322;50.932;5.318;2023-01-08T10:06:56;8.40;99.90
18392;DHT22;9322;50.932;5.318;2023-01-08T10:09:27;8.20;99.90
18392;DHT22;9322;50.932;5.318;2023-01-08T10:11:57;8.20;99.90
18392;DHT22;9322;50.932;5.318;2023-01-08T10:14:28;8.40;99.90
18392;DHT22;9322;50.932;5.318;2023-01-08T10:17:01;8.40;99.90
18392;DHT22;9322;50.932;5.318;2023-01-08T10:19:29;8.70;99.90
18392;DHT22;9322;50.932;5.318;2023-01-08T10:21:55;8.80;99.90
18392;DHT22;9322;50.932;5.318;2023-01-08T10:24:35;9.00;99.90
18392;DHT22;9322;50.932;5.318;2023-01-08T10:27:16;9.10;99.90
18392;DHT22;9322;50.932;5.318;2023-01-08T10:29:42;9.20;99.90
18392;DHT22;9322;50.932;5.318;2023-01-08T10:32:16;9.30;99.90
18392;DHT22;9322;50.932;5.318;2023-01-08T10:34:49;9.20;99.90
18392;DHT22;9322;50.932;5.318;2023-01-08T10:37:38;9.30;99.90
18392;DHT22;9322;50.932;5.318;2023-01-08T10:40:44;9.50;99.90
18392;DHT22;9322;50.932;5.318;2023-01-08T10:43:20;10.70;99.90
18392;DHT22;9322;50.932;5.318;2023-01-08T10:46:01;12.20;99.90
18392;DHT22;9322;50.932;5.318;2023-01-08T10:48:33;12.90;99.90
18392;DHT22;9322;50.932;5.318;2023-01-08T10:51:15;12.80;1.40
18392;DHT22;9322;50.932;5.318;2023-01-08T10:53:42;13.60;1.40
18392;DHT22;9322;50.932;5.318;2023-01-08T10:56:22;14.20;1.40
18392;DHT22;9322;50.932;5.318;2023-01-08T10:58:49;13.80;1.40
18392;DHT22;9322;50.932;5.318;2023-01-08T11:01:27;14.00;1.40
18392;DHT22;9322;50.932;5.318;2023-01-08T11:03:58;14.00;1.40
18392;DHT22;9322;50.932;5.318;2023-01-08T11:06:27;13.30;1.40
18392;DHT22;9322;50.932;5.318;2023-01-08T11:09:18;12.90;1.40
18392;DHT22;9322;50.932;5.318;2023-01-08T11:11:41;13.80;1.40
18392;DHT22;9322;50.932;5.318;2023-01-08T11:14:29;13.40;1.40
18392;DHT22;9322;50.932;5.318;2023-01-08T11:16:55;13.90;1.40
18392;DHT22;9322;50.932;5.318;2023-01-08T11:22:01;14.00;1.40
18392;DHT22;9322;50.932;5.318;2023-01-08T11:24:31;14.00;1.40
18392;DHT22;9322;50.932;5.318;2023-01-08T11:29:37;14.20;1.40
18392;DHT22;9322;50.932;5.318;2023-01-08T11:37:27;14.20;1.40
18392;DHT22;9322;50.932;5.318;2023-01-08T11:39:54;14.50;1.40
18392;DHT22;9322;50.932;5.318;2023-01-08T11:55:45;15.20;1.40
18392;DHT22;9322;50.932;5.318;2023-01-08T12:03:21;11.70;99.90
18392;DHT22;9322;50.932;5.318;2023-01-08T12:06:21;11.30;1.40
18392;DHT22;9322;50.932;5.318;2023-01-08T12:11:39;12.60;1.40
18392;DHT22;9322;50.932;5.318;2023-01-08T12:15:31;12.30;1.40
18392;DHT22;9322;50.932;5.318;2023-01-08T12:18:01;12.80;1.40
18392;DHT22;9322;50.932;5.318;2023-01-08T12:20:45;13.80;1.40
18392;DHT22;9322;50.932;5.318;2023-01-08T12:26:02;13.70;1.40
18392;DHT22;9322;50.932;5.318;2023-01-08T12:31:55;14.20;1.40
18392;DHT22;9322;50.932;5.318;2023-01-08T12:37:10;14.40;1.40
18392;DHT22;9322;50.932;5.318;2023-01-08T12:39:53;14.30;1.40
18392;DHT22;9322;50.932;5.318;2023-01-08T12:42:22;14.40;1.40
18392;DHT22;9322;50.932;5.318;2023-01-08T12:44:52;14.10;1.40
18392;DHT22;9322;50.932;5.318;2023-01-08T12:47:22;14.50;1.40
18392;DHT22;9322;50.932;5.318;2023-01-08T12:50:08;15.30;1.40
18392;DHT22;9322;50.932;5.318;2023-01-08T12:53:06;15.50;1.40
18392;DHT22;9322;50.932;5.318;2023-01-08T12:58:16;13.90;1.40
18392;DHT22;9322;50.932;5.318;2023-01-08T13:03:24;12.50;1.40
18392;DHT22;9322;50.932;5.318;2023-01-08T13:05:51;12.10;1.40
18392;DHT22;9322;50.932;5.318;2023-01-08T13:08:31;11.60;1.40
18392;DHT22;9322;50.932;5.318;2023-01-08T13:10:57;11.50;1.40
18392;DHT22;9322;50.932;5.318;2023-01-08T13:13:38;11.30;1.40
18392;DHT22;9322;50.932;5.318;2023-01-08T13:19:00;11.40;1.40
18392;DHT22;9322;50.932;5.318;2023-01-08T13:21:50;11.60;1.40
18392;DHT22;9322;50.932;5.318;2023-01-08T13:24:35;12.00;1.40
18392;DHT22;9322;50.932;5.318;2023-01-08T13:27:30;11.90;1.40
18392;DHT22;9322;50.932;5.318;2023-01-08T13:29:56;12.00;1.40
18392;DHT22;9322;50.932;5.318;2023-01-08T13:32:35;12.10;1.40
18392;DHT22;9322;50.932;5.318;2023-01-08T13:37:45;11.20;1.40
18392;DHT22;9322;50.932;5.318;2023-01-08T13:43:39;11.10;1.40
18392;DHT22;9322;50.932;5.318;2023-01-08T13:46:17;10.90;1.40
18392;DHT22;9322;50.932;5.318;2023-01-08T13:48:49;11.30;1.40
18392;DHT22;9322;50.932;5.318;2023-01-08T13:51:28;11.30;1.40
18392;DHT22;9322;50.932;5.318;2023-01-08T13:53:55;11.00;1.40
18392;DHT22;9322;50.932;5.318;2023-01-08T13:56:21;11.10;1.40
18392;DHT22;9322;50.932;5.318;2023-01-08T13:58:52;11.00;1.40
18392;DHT22;9322;50.932;5.318;2023-01-08T14:01:19;11.00;1.40
18392;DHT22;9322;50.932;5.318;2023-01-08T14:04:04;10.60;1.40
18392;DHT22;9322;50.932;5.318;2023-01-08T14:06:30;10.60;1.40
18392;DHT22;9322;50.932;5.318;2023-01-08T14:09:03;10.80;1.40
18392;DHT22;9322;50.932;5.318;2023-01-08T14:11:38;10.50;1.40
18392;DHT22;9322;50.932;5.318;2023-01-08T14:14:13;10.30;1.40
18392;DHT22;9322;50.932;5.318;2023-01-08T14:16:40;10.30;1.40
18392;DHT22;9322;50.932;5.318;2023-01-08T14:19:06;10.40;1.40
18392;DHT22;9322;50.932;5.318;2023-01-08T14:21:32;10.50;1.40
18392;DHT22;9322;50.932;5.318;2023-01-08T14:23:58;10.50;1.40
18392;DHT22;9322;50.932;5.318;2023-01-08T14:26:35;10.40;1.40
18392;DHT22;9322;50.932;5.318;2023-01-08T14:29:03;10.50;1.40
18392;DHT22;9322;50.932;5.318;2023-01-08T14:31:36;10.50;1.40
18392;DHT22;9322;50.932;5.318;2023-01-08T14:34:03;10.40;1.40
18392;DHT22;9322;50.932;5.318;2023-01-08T14:36:29;10.30;1.40
18392;DHT22;9322;50.932;5.318;2023-01-08T14:38:54;10.30;1.40
18392;DHT22;9322;50.932;5.318;2023-01-08T14:41:46;10.20;1.40
18392;DHT22;9322;50.932;5.318;2023-01-08T14:44:32;10.30;1.40
18392;DHT22;9322;50.932;5.318;2023-01-08T14:46:57;10.20;1.40
18392;DHT22;9322;50.932;5.318;2023-01-08T14:49:26;10.10;1.40
18392;DHT22;9322;50.932;5.318;2023-01-08T14:51:54;10.10;1.40
18392;DHT22;9322;50.932;5.318;2023-01-08T14:54:25;10.10;1.40
18392;DHT22;9322;50.932;5.318;2023-01-08T14:56:54;10.20;1.40
18392;DHT22;9322;50.932;5.318;2023-01-08T14:59:25;10.10;1.40
18392;DHT22;9322;50.932;5.318;2023-01-08T15:02:00;10.20;1.40
18392;DHT22;9322;50.932;5.318;2023-01-08T15:04:27;10.30;1.40
18392;DHT22;9322;50.932;5.318;2023-01-08T15:07:13;10.20;1.40
18392;DHT22;9322;50.932;5.318;2023-01-08T15:09:40;10.20;99.90
18392;DHT22;9322;50.932;5.318;2023-01-08T15:12:21;10.20;1.40
18392;DHT22;9322;50.932;5.318;2023-01-08T15:14:47;10.10;1.40
18392;DHT22;9322;50.932;5.318;2023-01-08T15:17:18;10.00;1.40
18392;DHT22;9322;50.932;5.318;2023-01-08T15:19:47;9.90;1.40
18392;DHT22;9322;50.932;5.318;2023-01-08T15:22:25;9.80;1.40
18392;DHT22;9322;50.932;5.318;2023-01-08T15:25:02;9.70;1.40
18392;DHT22;9322;50.932;5.318;2023-01-08T15:27:29;9.70;1.40
18392;DHT22;9322;50.932;5.318;2023-01-08T15:30:02;9.60;1.40
18392;DHT22;9322;50.932;5.318;2023-01-08T15:32:32;9.50;1.40
18392;DHT22;9322;50.932;5.318;2023-01-08T15:35:03;9.60;1.40
18392;DHT22;9322;50.932;5.318;2023-01-08T15:37:37;9.50;1.40
18392;DHT22;9322;50.932;5.318;2023-01-08T15:40:03;9.40;1.40
18392;DHT22;9322;50.932;5.318;2023-01-08T15:42:31;9.50;1.40
18392;DHT22;9322;50.932;5.318;2023-01-08T15:45:19;9.40;1.40
18392;DHT22;9322;50.932;5.318;2023-01-08T15:47:45;9.40;1.40
18392;DHT22;9322;50.932;5.318;2023-01-08T15:50:11;9.30;1.40
18392;DHT22;9322;50.932;5.318;2023-01-08T15:52:38;9.30;1.40
18392;DHT22;9322;50.932;5.318;2023-01-08T15:55:05;9.40;1.40
18392;DHT22;9322;50.932;5.318;2023-01-08T15:57:31;9.30;1.40
18392;DHT22;9322;50.932;5.318;2023-01-08T15:59:57;9.20;1.40
18392;DHT22;9322;50.932;5.318;2023-01-08T16:02:23;9.10;99.90
18392;DHT22;9322;50.932;5.318;2023-01-08T16:04:53;9.00;99.90
18392;DHT22;9322;50.932;5.318;2023-01-08T16:07:19;9.10;99.90
18392;DHT22;9322;50.932;5.318;2023-01-08T16:09:45;9.00;99.90
18392;DHT22;9322;50.932;5.318;2023-01-08T16:12:11;9.00;99.90
18392;DHT22;9322;50.932;5.318;2023-01-08T16:14:37;9.00;99.90
18392;DHT22;9322;50.932;5.318;2023-01-08T16:17:03;9.00;99.90
18392;DHT22;9322;50.932;5.318;2023-01-08T16:19:30;9.10;99.90
18392;DHT22;9322;50.932;5.318;2023-01-08T16:21:57;8.90;99.90
18392;DHT22;9322;50.932;5.318;2023-01-08T16:24:23;8.90;99.90
18392;DHT22;9322;50.932;5.318;2023-01-08T16:26:49;8.90;99.90
18392;DHT22;9322;50.932;5.318;2023-01-08T16:29:14;9.10;99.90
18392;DHT22;9322;50.932;5.318;2023-01-08T16:31:44;8.90;99.90
18392;DHT22;9322;50.932;5.318;2023-01-08T16:34:10;9.00;99.90
18392;DHT22;9322;50.932;5.318;2023-01-08T16:36:36;9.00;99.90
18392;DHT22;9322;50.932;5.318;2023-01-08T16:39:03;8.90;99.90
18392;DHT22;9322;50.932;5.318;2023-01-08T16:41:28;8.90;99.90
18392;DHT22;9322;50.932;5.318;2023-01-08T16:43:54;9.00;99.90
18392;DHT22;9322;50.932;5.318;2023-01-08T16:46:20;8.80;99.90
18392;DHT22;9322;50.932;5.318;2023-01-08T16:48:46;8.70;99.90
18392;DHT22;9322;50.932;5.318;2023-01-08T16:51:13;8.70;99.90
18392;DHT22;9322;50.932;5.318;2023-01-08T16:53:39;8.80;99.90
18392;DHT22;9322;50.932;5.318;2023-01-08T16:56:06;8.70;99.90
18392;DHT22;9322;50.932;5.318;2023-01-08T16:58:32;8.70;99.90
18392;DHT22;9322;50.932;5.318;2023-01-08T17:01:00;8.60;99.90
18392;DHT22;9322;50.932;5.318;2023-01-08T17:03:28;8.60;99.90
18392;DHT22;9322;50.932;5.318;2023-01-08T17:05:53;8.50;99.90
18392;DHT22;9322;50.932;5.318;2023-01-08T17:08:26;8.60;99.90
18392;DHT22;9322;50.932;5.318;2023-01-08T17:10:52;8.50;99.90
18392;DHT22;9322;50.932;5.318;2023-01-08T17:13:17;8.60;99.90
18392;DHT22;9322;50.932;5.318;2023-01-08T17:15:43;8.50;99.90
18392;DHT22;9322;50.932;5.318;2023-01-08T17:18:09;8.70;99.90
18392;DHT22;9322;50.932;5.318;2023-01-08T17:20:35;8.60;99.90
18392;DHT22;9322;50.932;5.318;2023-01-08T17:23:01;8.60;99.90
18392;DHT22;9322;50.932;5.318;2023-01-08T17:25:26;8.60;99.90
18392;DHT22;9322;50.932;5.318;2023-01-08T17:27:52;8.70;99.90
18392;DHT22;9322;50.932;5.318;2023-01-08T17:30:18;8.60;99.90
18392;DHT22;9322;50.932;5.318;2023-01-08T17:32:44;8.50;99.90
18392;DHT22;9322;50.932;5.318;2023-01-08T17:35:09;8.50;99.90
18392;DHT22;9322;50.932;5.318;2023-01-08T17:37:35;8.40;99.90